Time,TemperatureF,DewpointF,PressureIn,WindDirection,WindDirectionDegrees,WindSpeedMPH,WindSpeedGustMPH,Humidity,HourlyPrecipIn,Conditions,Clouds,dailyrainin,SolarRadiationWatts/m^2,SoftwareType,DateUTC
2013-01-12 00:00:00,39.9,37.4,30.24,SSE,148,8.0,12.0,91,0.00,,,0.00,0,HR-IXPWINDi_r2_v1.2.,2013-01-12 05:00:00,
2013-01-12 00:05:00,40.1,37.9,30.23,South,182,8.0,12.0,92,0.00,,,0.00,0,HR-IXPWINDi_r2_v1.2.,2013-01-12 05:05:00,
2013-01-12 00:10:00,40.2,38.0,30.23,SSE,167,6.0,12.0,92,0.00,,,0.00,0,HR-IXPWINDi_r2_v1.2.,2013-01-12 05:10:00,
2013-01-12 00:15:00,40.1,37.9,30.23,SSW,192,8.0,13.0,92,0.00,,,0.00,0,HR-IXPWINDi_r2_v1.2.,2013-01-12 05:15:00,
2013-01-12 00:20:00,40.1,37.9,30.23,South,180,7.0,13.0,92,0.00,,,0.00,0,HR-IXPWINDi_r2_v1.2.,2013-01-12 05:20:00,
2013-01-12 00:26:00,40.2,38.0,30.23,SSE,158,11.0,14.0,92,0.00,,,0.00,0,HR-IXPWINDi_r2_v1.2.,2013-01-12 05:26:00,
2013-01-12 00:31:00,40.2,38.0,30.22,SSW,196,6.0,14.0,92,0.00,,,0.00,0,HR-IXPWINDi_r2_v1.2.,2013-01-12 05:31:00,
2013-01-12 00:36:00,40.3,38.1,30.22,South,173,11.0,14.0,92,0.00,,,0.00,0,HR-IXPWINDi_r2_v1.2.,2013-01-12 05:36:00,
2013-01-12 00:41:00,40.2,38.0,30.22,SSE,152,11.0,16.0,92,0.00,,,0.00,0,HR-IXPWINDi_r2_v1.2.,2013-01-12 05:41:00,
2013-01-12 00:47:00,40.0,37.8,30.22,South,186,8.0,16.0,92,0.00,,,0.00,0,HR-IXPWINDi_r2_v1.2.,2013-01-12 05:47:00,
2013-01-12 00:52:00,40.0,37.8,30.22,South,176,8.0,16.0,92,0.00,,,0.00,0,HR-IXPWINDi_r2_v1.2.,2013-01-12 05:52:00,
2013-01-12 00:57:00,40.1,37.9,30.21,SE,142,12.0,14.0,92,0.00,,,0.00,0,HR-IXPWINDi_r2_v1.2.,2013-01-12 05:57:00,
2013-01-12 01:02:00,40.1,37.9,30.21,SE,141,8.0,13.0,92,0.00,,,0.00,0,HR-IXPWINDi_r2_v1.2.,2013-01-12 06:02:00,
2013-01-12 01:08:00,40.2,38.0,30.21,SSW,198,7.0,13.0,92,0.00,,,0.00,0,HR-IXPWINDi_r2_v1.2.,2013-01-12 06:08:00,
2013-01-12 01:13:00,40.1,38.2,30.21,SSW,197,10.0,13.0,93,0.00,,,0.00,0,HR-IXPWINDi_r2_v1.2.,2013-01-12 06:13:00,
2013-01-12 01:18:00,40.1,38.2,30.20,SE,142,8.0,14.0,93,0.00,,,0.00,0,HR-IXPWINDi_r2_v1.2.,2013-01-12 06:18:00,
2013-01-12 01:23:00,40.1,38.2,30.21,SSE,153,5.0,14.0,93,0.00,,,0.00,0,HR-IXPWINDi_r2_v1.2.,2013-01-12 06:23:00,
2013-01-12 01:29:00,40.1,38.2,30.20,South,176,9.0,15.0,93,0.00,,,0.00,0,HR-IXPWINDi_r2_v1.2.,2013-01-12 06:29:00,
2013-01-12 01:34:00,40.0,38.1,30.20,SSE,162,8.0,15.0,93,0.00,,,0.00,0,HR-IXPWINDi_r2_v1.2.,2013-01-12 06:34:00,
2013-01-12 01:39:00,40.1,38.2,30.21,SE,146,8.0,16.0,93,0.00,,,0.00,0,HR-IXPWINDi_r2_v1.2.,2013-01-12 06:39:00,
2013-01-12 01:44:00,40.2,38.3,30.21,South,171,9.0,16.0,93,0.00,,,0.00,0,HR-IXPWINDi_r2_v1.2.,2013-01-12 06:44:00,
2013-01-12 01:49:00,40.2,38.3,30.21,SSE,147,8.0,12.0,93,0.00,,,0.00,0,HR-IXPWINDi_r2_v1.2.,2013-01-12 06:49:00,
2013-01-12 01:54:00,40.3,38.4,30.21,SSW,197,7.0,12.0,93,0.00,,,0.00,0,HR-IXPWINDi_r2_v1.2.,2013-01-12 06:54:00,
2013-01-12 02:00:00,40.2,38.3,30.20,SSW,196,7.0,13.0,93,0.00,,,0.00,0,HR-IXPWINDi_r2_v1.2.,2013-01-12 07:00:00,
2013-01-12 02:05:00,40.2,38.3,30.20,SSE,166,7.0,13.0,93,0.00,,,0.00,0,HR-IXPWINDi_r2_v1.2.,2013-01-12 07:05:00,
2013-01-12 02:10:00,40.3,38.4,30.19,South,171,5.0,12.0,93,0.00,,,0.00,0,HR-IXPWINDi_r2_v1.2.,2013-01-12 07:10:00,
2013-01-12 02:15:00,40.4,38.5,30.20,SE,134,7.0,12.0,93,0.00,,,0.00,0,HR-IXPWINDi_r2_v1.2.,2013-01-12 07:15:00,
2013-01-12 02:20:00,40.5,38.6,30.20,South,178,6.0,13.0,93,0.00,,,0.00,0,HR-IXPWINDi_r2_v1.2.,2013-01-12 07:20:00,
2013-01-12 02:26:00,40.6,38.7,30.20,SW,230,8.0,13.0,93,0.00,,,0.00,0,HR-IXPWINDi_r2_v1.2.,2013-01-12 07:26:00,
2013-01-12 02:31:00,40.6,38.4,30.20,South,176,8.0,14.0,92,0.00,,,0.00,0,HR-IXPWINDi_r2_v1.2.,2013-01-12 07:31:00,
2013-01-12 02:36:00,40.6,38.4,30.20,South,175,10.0,15.0,92,0.00,,,0.00,0,HR-IXPWINDi_r2_v1.2.,2013-01-12 07:36:00,
2013-01-12 02:41:00,40.6,38.4,30.20,South,177,7.0,16.0,92,0.00,,,0.00,0,HR-IXPWINDi_r2_v1.2.,2013-01-12 07:41:00,
2013-01-12 02:47:00,40.7,38.5,30.20,South,186,11.0,16.0,92,0.00,,,0.00,0,HR-IXPWINDi_r2_v1.2.,2013-01-12 07:47:00,
2013-01-12 02:52:00,40.7,38.5,30.20,SSE,147,6.0,12.0,92,0.00,,,0.00,0,HR-IXPWINDi_r2_v1.2.,2013-01-12 07:52:00,
2013-01-12 02:57:00,40.7,38.5,30.19,SSE,163,12.0,14.0,92,0.00,,,0.00,0,HR-IXPWINDi_r2_v1.2.,2013-01-12 07:57:00,
2013-01-12 03:02:00,40.7,38.5,30.19,SSE,168,8.0,14.0,92,0.00,,,0.00,0,HR-IXPWINDi_r2_v1.2.,2013-01-12 08:02:00,
2013-01-12 03:07:00,40.8,38.6,30.19,South,185,10.0,14.0,92,0.00,,,0.00,0,HR-IXPWINDi_r2_v1.2.,2013-01-12 08:07:00,
2013-01-12 03:13:00,40.7,38.5,30.19,SSE,154,9.0,14.0,92,0.00,,,0.00,0,HR-IXPWINDi_r2_v1.2.,2013-01-12 08:13:00,
2013-01-12 03:18:00,40.9,38.7,30.19,South,177,6.0,13.0,92,0.00,,,0.00,0,HR-IXPWINDi_r2_v1.2.,2013-01-12 08:18:00,
2013-01-12 03:23:00,40.9,38.7,30.18,South,183,8.0,14.0,92,0.00,,,0.00,0,HR-IXPWINDi_r2_v1.2.,2013-01-12 08:23:00,
2013-01-12 03:28:00,40.9,38.7,30.18,South,180,10.0,15.0,92,0.00,,,0.00,0,HR-IXPWINDi_r2_v1.2.,2013-01-12 08:28:00,
2013-01-12 03:34:00,40.8,38.6,30.18,SSE,153,10.0,15.0,92,0.00,,,0.00,0,HR-IXPWINDi_r2_v1.2.,2013-01-12 08:34:00,
2013-01-12 03:39:00,40.9,38.7,30.17,SSE,154,5.0,13.0,92,0.00,,,0.00,0,HR-IXPWINDi_r2_v1.2.,2013-01-12 08:39:00,
2013-01-12 03:44:00,41.0,38.8,30.17,ESE,117,7.0,13.0,92,0.00,,,0.00,0,HR-IXPWINDi_r2_v1.2.,2013-01-12 08:44:00,
2013-01-12 03:49:00,41.0,38.8,30.17,SSE,148,5.0,13.0,92,0.00,,,0.00,0,HR-IXPWINDi_r2_v1.2.,2013-01-12 08:49:00,
2013-01-12 03:54:00,41.0,38.8,30.17,South,178,7.0,13.0,92,0.00,,,0.00,0,HR-IXPWINDi_r2_v1.2.,2013-01-12 08:54:00,
2013-01-12 03:59:00,41.1,38.9,30.17,SSW,204,4.0,12.0,92,0.00,,,0.00,0,HR-IXPWINDi_r2_v1.2.,2013-01-12 08:59:00,
2013-01-12 04:05:00,41.2,39.0,30.17,SE,142,8.0,13.0,92,0.00,,,0.00,0,HR-IXPWINDi_r2_v1.2.,2013-01-12 09:05:00,
2013-01-12 04:10:00,41.2,39.0,30.17,South,173,7.0,13.0,92,0.00,,,0.00,0,HR-IXPWINDi_r2_v1.2.,2013-01-12 09:10:00,
2013-01-12 04:15:00,41.3,39.1,30.17,South,185,4.0,13.0,92,0.00,,,0.00,0,HR-IXPWINDi_r2_v1.2.,2013-01-12 09:15:00,
2013-01-12 04:20:00,41.4,39.2,30.17,SSE,167,2.0,11.0,92,0.00,,,0.00,0,HR-IXPWINDi_r2_v1.2.,2013-01-12 09:20:00,
2013-01-12 04:26:00,41.3,38.8,30.17,SSE,151,7.0,11.0,91,0.00,,,0.00,0,HR-IXPWINDi_r2_v1.2.,2013-01-12 09:26:00,
2013-01-12 04:31:00,41.4,38.9,30.16,South,182,6.0,11.0,91,0.00,,,0.00,0,HR-IXPWINDi_r2_v1.2.,2013-01-12 09:31:00,
2013-01-12 04:36:00,41.3,38.8,30.16,SSE,155,8.0,11.0,91,0.00,,,0.00,0,HR-IXPWINDi_r2_v1.2.,2013-01-12 09:36:00,
2013-01-12 04:41:00,41.4,38.9,30.16,SSE,158,7.0,11.0,91,0.00,,,0.00,0,HR-IXPWINDi_r2_v1.2.,2013-01-12 09:41:00,
2013-01-12 04:47:00,41.4,38.9,30.16,SSE,157,7.0,11.0,91,0.00,,,0.00,0,HR-IXPWINDi_r2_v1.2.,2013-01-12 09:47:00,
2013-01-12 04:52:00,41.3,39.1,30.16,SSE,155,4.0,13.0,92,0.00,,,0.00,0,HR-IXPWINDi_r2_v1.2.,2013-01-12 09:52:00,
2013-01-12 04:57:00,41.3,39.1,30.16,SSE,152,8.0,13.0,92,0.00,,,0.00,0,HR-IXPWINDi_r2_v1.2.,2013-01-12 09:57:00,
2013-01-12 05:02:00,41.4,39.2,30.16,South,173,6.0,11.0,92,0.00,,,0.00,0,HR-IXPWINDi_r2_v1.2.,2013-01-12 10:02:00,
2013-01-12 05:08:00,41.4,39.2,30.16,South,178,4.0,11.0,92,0.00,,,0.00,0,HR-IXPWINDi_r2_v1.2.,2013-01-12 10:08:00,
2013-01-12 05:13:00,41.4,39.2,30.17,South,182,7.0,12.0,92,0.00,,,0.00,0,HR-IXPWINDi_r2_v1.2.,2013-01-12 10:13:00,
2013-01-12 05:18:00,41.4,39.2,30.17,South,175,4.0,12.0,92,0.00,,,0.00,0,HR-IXPWINDi_r2_v1.2.,2013-01-12 10:18:00,
2013-01-12 05:23:00,41.4,39.2,30.17,South,180,6.0,9.0,92,0.00,,,0.00,0,HR-IXPWINDi_r2_v1.2.,2013-01-12 10:23:00,
2013-01-12 05:28:00,41.4,39.2,30.17,South,170,5.0,10.0,92,0.00,,,0.00,0,HR-IXPWINDi_r2_v1.2.,2013-01-12 10:28:00,
2013-01-12 05:33:00,41.4,39.2,30.18,SSE,163,7.0,10.0,92,0.00,,,0.00,0,HR-IXPWINDi_r2_v1.2.,2013-01-12 10:33:00,
2013-01-12 05:38:00,41.4,39.2,30.18,SSE,163,7.0,9.0,92,0.00,,,0.00,0,HR-IXPWINDi_r2_v1.2.,2013-01-12 10:38:00,
2013-01-12 05:44:00,-999.0,99.9,30.18,North,-999,-999.0,-999.0,-999,99.99,,,0.00,,HR-IXPWINDi_r2_v1.2.,2013-01-12 10:44:00,
2013-01-12 05:49:00,-999.0,99.9,30.17,North,-999,-999.0,-999.0,-999,99.99,,,0.00,,HR-IXPWINDi_r2_v1.2.,2013-01-12 10:49:00,
2013-01-12 05:54:00,-999.0,99.9,30.17,North,-999,-999.0,-999.0,-999,99.99,,,0.00,,HR-IXPWINDi_r2_v1.2.,2013-01-12 10:54:00,
2013-01-12 05:59:00,-999.0,99.9,30.16,North,-999,-999.0,-999.0,-999,99.99,,,0.00,,HR-IXPWINDi_r2_v1.2.,2013-01-12 10:59:00,
2013-01-12 06:04:00,-999.0,99.9,30.16,North,-999,-999.0,-999.0,-999,99.99,,,0.00,,HR-IXPWINDi_r2_v1.2.,2013-01-12 11:04:00,
2013-01-12 06:10:00,-999.0,99.9,30.16,North,-999,-999.0,-999.0,-999,99.99,,,0.00,,HR-IXPWINDi_r2_v1.2.,2013-01-12 11:10:00,
2013-01-12 06:15:00,-999.0,99.9,30.16,North,-999,-999.0,-999.0,-999,99.99,,,0.00,,HR-IXPWINDi_r2_v1.2.,2013-01-12 11:15:00,
2013-01-12 06:20:00,-999.0,99.9,30.15,North,-999,-999.0,-999.0,-999,99.99,,,0.00,,HR-IXPWINDi_r2_v1.2.,2013-01-12 11:20:00,
2013-01-12 06:25:00,-999.0,99.9,30.16,North,-999,-999.0,-999.0,-999,99.99,,,0.00,,HR-IXPWINDi_r2_v1.2.,2013-01-12 11:25:00,
2013-01-12 06:30:00,-999.0,99.9,30.16,North,-999,-999.0,-999.0,-999,99.99,,,0.00,,HR-IXPWINDi_r2_v1.2.,2013-01-12 11:30:00,
2013-01-12 06:35:00,-999.0,99.9,30.16,North,-999,-999.0,-999.0,-999,99.99,,,0.00,,HR-IXPWINDi_r2_v1.2.,2013-01-12 11:35:00,
2013-01-12 06:40:00,-999.0,99.9,30.16,North,-999,-999.0,-999.0,-999,99.99,,,0.00,,HR-IXPWINDi_r2_v1.2.,2013-01-12 11:40:00,
2013-01-12 06:46:00,-999.0,99.9,30.17,North,-999,-999.0,-999.0,-999,99.99,,,0.00,,HR-IXPWINDi_r2_v1.2.,2013-01-12 11:46:00,
2013-01-12 06:51:00,-999.0,99.9,30.16,North,-999,-999.0,-999.0,-999,99.99,,,0.00,,HR-IXPWINDi_r2_v1.2.,2013-01-12 11:51:00,
2013-01-12 06:56:00,-999.0,99.9,30.16,North,-999,-999.0,-999.0,-999,99.99,,,0.00,,HR-IXPWINDi_r2_v1.2.,2013-01-12 11:56:00,
2013-01-12 07:01:00,-999.0,99.9,30.16,North,-999,-999.0,-999.0,-999,99.99,,,0.00,,HR-IXPWINDi_r2_v1.2.,2013-01-12 12:01:00,
2013-01-12 07:06:00,-999.0,99.9,30.17,North,-999,-999.0,-999.0,-999,99.99,,,0.00,,HR-IXPWINDi_r2_v1.2.,2013-01-12 12:06:00,
2013-01-12 07:11:00,-999.0,99.9,30.18,North,-999,-999.0,-999.0,-999,99.99,,,0.00,,HR-IXPWINDi_r2_v1.2.,2013-01-12 12:11:00,
2013-01-12 07:17:00,-999.0,99.9,30.17,North,-999,-999.0,-999.0,-999,99.99,,,0.00,,HR-IXPWINDi_r2_v1.2.,2013-01-12 12:17:00,
2013-01-12 07:22:00,-999.0,99.9,30.18,North,-999,-999.0,-999.0,-999,99.99,,,0.00,,HR-IXPWINDi_r2_v1.2.,2013-01-12 12:22:00,
2013-01-12 07:27:00,-999.0,99.9,30.18,North,-999,-999.0,-999.0,-999,99.99,,,0.00,,HR-IXPWINDi_r2_v1.2.,2013-01-12 12:27:00,
2013-01-12 07:32:00,-999.0,99.9,30.18,North,-999,-999.0,-999.0,-999,99.99,,,0.00,,HR-IXPWINDi_r2_v1.2.,2013-01-12 12:32:00,
2013-01-12 07:38:00,-999.0,99.9,30.18,North,-999,-999.0,-999.0,-999,99.99,,,0.00,,HR-IXPWINDi_r2_v1.2.,2013-01-12 12:38:00,
2013-01-12 07:43:00,-999.0,99.9,30.19,North,-999,-999.0,-999.0,-999,99.99,,,0.00,,HR-IXPWINDi_r2_v1.2.,2013-01-12 12:43:00,
2013-01-12 07:48:00,-999.0,99.9,30.19,North,-999,-999.0,-999.0,-999,99.99,,,0.00,,HR-IXPWINDi_r2_v1.2.,2013-01-12 12:48:00,
2013-01-12 07:53:00,-999.0,99.9,30.19,North,-999,-999.0,-999.0,-999,99.99,,,0.00,,HR-IXPWINDi_r2_v1.2.,2013-01-12 12:53:00,
2013-01-12 07:58:00,-999.0,99.9,30.19,North,-999,-999.0,-999.0,-999,99.99,,,0.00,,HR-IXPWINDi_r2_v1.2.,2013-01-12 12:58:00,
2013-01-12 08:04:00,-999.0,99.9,30.19,North,-999,-999.0,-999.0,-999,99.99,,,0.00,,HR-IXPWINDi_r2_v1.2.,2013-01-12 13:04:00,
2013-01-12 08:09:00,-999.0,99.9,30.19,North,-999,-999.0,-999.0,-999,99.99,,,0.00,,HR-IXPWINDi_r2_v1.2.,2013-01-12 13:09:00,
2013-01-12 08:14:00,41.5,40.1,30.19,West,267,1.0,255.0,95,0.00,,,0.00,32,HR-IXPWINDi_r2_v1.2.,2013-01-12 13:14:00,
2013-01-12 08:19:00,41.5,39.9,30.19,SSW,195,0.0,255.0,94,0.00,,,0.00,44,HR-IXPWINDi_r2_v1.2.,2013-01-12 13:19:00,
2013-01-12 08:25:00,41.7,40.0,30.18,SSW,193,0.0,2.0,94,0.00,,,0.00,56,HR-IXPWINDi_r2_v1.2.,2013-01-12 13:25:00,
2013-01-12 08:30:00,41.8,40.4,30.18,ENE,70,1.0,1.0,95,0.00,,,0.00,63,HR-IXPWINDi_r2_v1.2.,2013-01-12 13:30:00,
2013-01-12 08:35:00,41.8,40.4,30.18,NW,321,0.0,1.0,95,0.00,,,0.00,63,HR-IXPWINDi_r2_v1.2.,2013-01-12 13:35:00,
2013-01-12 08:40:00,42.0,40.6,30.18,East,99,1.0,2.0,95,0.00,,,0.00,56,HR-IXPWINDi_r2_v1.2.,2013-01-12 13:40:00,
2013-01-12 08:45:00,42.0,40.6,30.19,East,99,0.0,2.0,95,0.00,,,0.00,42,HR-IXPWINDi_r2_v1.2.,2013-01-12 13:45:00,
2013-01-12 08:51:00,41.9,40.5,30.19,East,99,0.0,2.0,95,0.00,,,0.00,42,HR-IXPWINDi_r2_v1.2.,2013-01-12 13:51:00,
2013-01-12 08:56:00,41.9,40.5,30.19,East,99,0.0,2.0,95,0.00,,,0.00,49,HR-IXPWINDi_r2_v1.2.,2013-01-12 13:56:00,
2013-01-12 09:01:00,42.0,40.6,30.19,East,99,0.0,2.0,95,0.00,,,0.00,60,HR-IXPWINDi_r2_v1.2.,2013-01-12 14:01:00,
2013-01-12 09:06:00,42.0,40.3,30.20,East,99,0.0,2.0,94,0.00,,,0.00,67,HR-IXPWINDi_r2_v1.2.,2013-01-12 14:06:00,
2013-01-12 09:11:00,42.0,40.6,30.20,East,99,0.0,2.0,95,0.00,,,0.00,56,HR-IXPWINDi_r2_v1.2.,2013-01-12 14:11:00,
2013-01-12 09:17:00,41.9,40.2,30.20,ESE,107,0.0,2.0,94,0.00,,,0.00,56,HR-IXPWINDi_r2_v1.2.,2013-01-12 14:17:00,
2013-01-12 09:22:00,42.0,40.3,30.19,East,92,0.0,2.0,94,0.00,,,0.00,63,HR-IXPWINDi_r2_v1.2.,2013-01-12 14:22:00,
2013-01-12 09:27:00,41.8,40.1,30.19,East,92,0.0,2.0,94,0.00,,,0.00,69,HR-IXPWINDi_r2_v1.2.,2013-01-12 14:27:00,
2013-01-12 09:32:00,42.3,40.6,30.19,East,92,0.0,1.0,94,0.00,,,0.00,84,HR-IXPWINDi_r2_v1.2.,2013-01-12 14:32:00,
2013-01-12 09:37:00,42.3,40.6,30.20,East,92,0.0,1.0,94,0.00,,,0.00,120,HR-IXPWINDi_r2_v1.2.,2013-01-12 14:37:00,
2013-01-12 09:42:00,42.3,40.6,30.20,NW,307,2.0,3.0,94,0.00,,,0.00,77,HR-IXPWINDi_r2_v1.2.,2013-01-12 14:42:00,
2013-01-12 09:48:00,42.3,40.6,30.20,NW,307,0.0,3.0,94,0.00,,,0.00,102,HR-IXPWINDi_r2_v1.2.,2013-01-12 14:48:00,
2013-01-12 09:53:00,43.2,41.5,30.19,NW,307,0.0,2.0,94,0.00,,,0.00,146,HR-IXPWINDi_r2_v1.2.,2013-01-12 14:53:00,
2013-01-12 09:58:00,43.4,41.7,30.19,NW,307,0.0,2.0,94,0.00,,,0.00,163,HR-IXPWINDi_r2_v1.2.,2013-01-12 14:58:00,
2013-01-12 10:03:00,43.5,41.6,30.19,NW,307,0.0,2.0,93,0.00,,,0.00,181,HR-IXPWINDi_r2_v1.2.,2013-01-12 15:03:00,
2013-01-12 10:08:00,43.5,41.6,30.19,WNW,294,1.0,3.0,93,0.00,,,0.00,167,HR-IXPWINDi_r2_v1.2.,2013-01-12 15:08:00,
2013-01-12 10:13:00,43.5,41.3,30.19,WNW,294,0.0,3.0,92,0.00,,,0.00,172,HR-IXPWINDi_r2_v1.2.,2013-01-12 15:13:00,
2013-01-12 10:19:00,43.8,41.6,30.19,WNW,294,0.0,2.0,92,0.00,,,0.00,155,HR-IXPWINDi_r2_v1.2.,2013-01-12 15:19:00,
2013-01-12 10:24:00,43.8,41.3,30.18,WNW,294,0.0,2.0,91,0.00,,,0.00,153,HR-IXPWINDi_r2_v1.2.,2013-01-12 15:24:00,
2013-01-12 10:29:00,43.8,41.3,30.18,WNW,294,0.0,0.0,91,0.00,,,0.00,142,HR-IXPWINDi_r2_v1.2.,2013-01-12 15:29:00,
2013-01-12 10:34:00,43.7,40.9,30.18,WNW,294,0.0,0.0,90,0.00,,,0.00,132,HR-IXPWINDi_r2_v1.2.,2013-01-12 15:34:00,
2013-01-12 10:39:00,43.9,41.1,30.18,WNW,294,0.0,0.0,90,0.00,,,0.00,114,HR-IXPWINDi_r2_v1.2.,2013-01-12 15:39:00,
2013-01-12 10:44:00,43.8,40.7,30.18,WNW,294,2.0,2.0,89,0.00,,,0.00,111,HR-IXPWINDi_r2_v1.2.,2013-01-12 15:44:00,
2013-01-12 10:49:00,43.7,40.6,30.18,WNW,294,0.0,2.0,89,0.00,,,0.00,127,HR-IXPWINDi_r2_v1.2.,2013-01-12 15:49:00,
2013-01-12 10:54:00,43.6,40.5,30.18,WNW,294,0.0,2.0,89,0.00,,,0.00,102,HR-IXPWINDi_r2_v1.2.,2013-01-12 15:54:00,
2013-01-12 10:59:00,43.8,40.7,30.18,WNW,294,0.0,2.0,89,0.00,,,0.00,90,HR-IXPWINDi_r2_v1.2.,2013-01-12 15:59:00,
2013-01-12 11:05:00,44.2,41.1,30.18,WNW,294,0.0,2.0,89,0.00,,,0.00,109,HR-IXPWINDi_r2_v1.2.,2013-01-12 16:05:00,
2013-01-12 11:10:00,44.7,41.3,30.18,WNW,294,0.0,1.0,88,0.00,,,0.00,102,HR-IXPWINDi_r2_v1.2.,2013-01-12 16:10:00,
2013-01-12 11:15:00,44.4,41.0,30.18,NNW,338,0.0,2.0,88,0.00,,,0.00,97,HR-IXPWINDi_r2_v1.2.,2013-01-12 16:15:00,
2013-01-12 11:20:00,44.3,40.6,30.18,NNW,330,0.0,2.0,87,0.00,,,0.00,139,HR-IXPWINDi_r2_v1.2.,2013-01-12 16:20:00,
2013-01-12 11:26:00,44.3,40.6,30.18,NNW,328,1.0,2.0,87,0.00,,,0.00,121,HR-IXPWINDi_r2_v1.2.,2013-01-12 16:26:00,
2013-01-12 11:31:00,44.3,40.9,30.17,ESE,118,3.0,3.0,88,0.00,,,0.00,146,HR-IXPWINDi_r2_v1.2.,2013-01-12 16:31:00,
2013-01-12 11:36:00,44.2,41.1,30.16,East,88,7.0,7.0,89,0.00,,,0.00,206,HR-IXPWINDi_r2_v1.2.,2013-01-12 16:36:00,
2013-01-12 11:41:00,44.0,40.6,30.15,ESE,115,4.0,7.0,88,0.00,,,0.00,223,HR-IXPWINDi_r2_v1.2.,2013-01-12 16:41:00,
2013-01-12 11:46:00,43.9,40.5,30.15,East,96,5.0,8.0,88,0.00,,,0.00,230,HR-IXPWINDi_r2_v1.2.,2013-01-12 16:46:00,
2013-01-12 11:51:00,44.2,40.8,30.15,SE,136,4.0,8.0,88,0.00,,,0.00,236,HR-IXPWINDi_r2_v1.2.,2013-01-12 16:51:00,
2013-01-12 11:57:00,44.2,40.5,30.16,ESE,109,2.0,7.0,87,0.00,,,0.00,202,HR-IXPWINDi_r2_v1.2.,2013-01-12 16:57:00,
2013-01-12 12:02:00,44.1,40.4,30.14,ENE,66,4.0,8.0,87,0.00,,,0.00,207,HR-IXPWINDi_r2_v1.2.,2013-01-12 17:02:00,
2013-01-12 12:07:00,44.2,40.8,30.14,SE,130,5.0,8.0,88,0.00,,,0.00,181,HR-IXPWINDi_r2_v1.2.,2013-01-12 17:07:00,
2013-01-12 12:12:00,43.9,40.2,30.13,ESE,123,7.0,9.0,87,0.00,,,0.00,176,HR-IXPWINDi_r2_v1.2.,2013-01-12 17:12:00,
2013-01-12 12:17:00,43.8,40.4,30.14,SE,140,1.0,9.0,88,0.00,,,0.00,144,HR-IXPWINDi_r2_v1.2.,2013-01-12 17:17:00,
2013-01-12 12:23:00,44.1,40.7,30.13,SSE,167,1.0,8.0,88,0.00,,,0.00,176,HR-IXPWINDi_r2_v1.2.,2013-01-12 17:23:00,
2013-01-12 12:28:00,44.2,41.1,30.13,South,172,2.0,5.0,89,0.00,,,0.00,192,HR-IXPWINDi_r2_v1.2.,2013-01-12 17:28:00,
2013-01-12 12:33:00,44.1,41.0,30.13,SE,138,3.0,6.0,89,0.00,,,0.00,200,HR-IXPWINDi_r2_v1.2.,2013-01-12 17:33:00,
2013-01-12 12:38:00,44.2,41.1,30.13,SSE,148,2.0,6.0,89,0.00,,,0.00,172,HR-IXPWINDi_r2_v1.2.,2013-01-12 17:38:00,
2013-01-12 12:43:00,44.1,41.0,30.13,SE,140,4.0,5.0,89,0.00,,,0.00,169,HR-IXPWINDi_r2_v1.2.,2013-01-12 17:43:00,
2013-01-12 12:48:00,44.1,41.0,30.13,SSE,161,1.0,5.0,89,0.00,,,0.00,149,HR-IXPWINDi_r2_v1.2.,2013-01-12 17:48:00,
2013-01-12 12:54:00,44.1,41.0,30.14,SSE,149,1.0,5.0,89,0.00,,,0.00,130,HR-IXPWINDi_r2_v1.2.,2013-01-12 17:54:00,
2013-01-12 12:59:00,44.2,41.4,30.13,SSE,159,3.0,3.0,90,0.00,,,0.00,127,HR-IXPWINDi_r2_v1.2.,2013-01-12 17:59:00,
2013-01-12 13:04:00,44.2,41.4,30.13,SSE,157,1.0,3.0,90,0.00,,,0.00,137,HR-IXPWINDi_r2_v1.2.,2013-01-12 18:04:00,
2013-01-12 13:09:00,44.2,41.4,30.14,South,179,3.0,4.0,90,0.00,,,0.00,132,HR-IXPWINDi_r2_v1.2.,2013-01-12 18:09:00,
2013-01-12 13:14:00,44.1,41.3,30.14,South,180,2.0,4.0,90,0.00,,,0.00,167,HR-IXPWINDi_r2_v1.2.,2013-01-12 18:14:00,
2013-01-12 13:20:00,44.2,41.4,30.14,South,180,1.0,4.0,90,0.00,,,0.00,165,HR-IXPWINDi_r2_v1.2.,2013-01-12 18:20:00,
2013-01-12 13:25:00,44.1,41.3,30.14,South,180,1.0,3.0,90,0.00,,,0.00,176,HR-IXPWINDi_r2_v1.2.,2013-01-12 18:25:00,
2013-01-12 13:30:00,44.1,41.3,30.14,South,180,2.0,2.0,90,0.00,,,0.00,174,HR-IXPWINDi_r2_v1.2.,2013-01-12 18:30:00,
2013-01-12 13:35:00,44.1,41.3,30.14,South,180,1.0,3.0,90,0.00,,,0.00,137,HR-IXPWINDi_r2_v1.2.,2013-01-12 18:35:00,
2013-01-12 13:40:00,44.1,41.3,30.14,South,180,1.0,3.0,90,0.00,,,0.00,113,HR-IXPWINDi_r2_v1.2.,2013-01-12 18:40:00,
2013-01-12 13:46:00,44.3,41.5,30.15,SSW,207,1.0,2.0,90,0.00,,,0.01,90,HR-IXPWINDi_r2_v1.2.,2013-01-12 18:46:00,
2013-01-12 13:51:00,44.1,41.3,30.15,WSW,239,1.0,2.0,90,0.00,,,0.01,97,HR-IXPWINDi_r2_v1.2.,2013-01-12 18:51:00,
2013-01-12 13:56:00,44.1,41.3,30.16,WSW,239,0.0,2.0,90,0.00,,,0.01,83,HR-IXPWINDi_r2_v1.2.,2013-01-12 18:56:00,
2013-01-12 14:01:00,44.0,41.2,30.17,WSW,239,2.0,2.0,90,0.00,,,0.01,63,HR-IXPWINDi_r2_v1.2.,2013-01-12 19:01:00,
2013-01-12 14:06:00,44.0,41.2,30.16,West,263,1.0,2.0,90,0.00,,,0.01,79,HR-IXPWINDi_r2_v1.2.,2013-01-12 19:06:00,
2013-01-12 14:11:00,44.1,41.3,30.16,SW,229,1.0,3.0,90,0.00,,,0.01,84,HR-IXPWINDi_r2_v1.2.,2013-01-12 19:11:00,
2013-01-12 14:16:00,44.1,41.3,30.17,WSW,246,3.0,3.0,90,0.00,,,0.01,69,HR-IXPWINDi_r2_v1.2.,2013-01-12 19:16:00,
2013-01-12 14:22:00,44.0,40.9,30.17,SW,234,2.0,4.0,89,0.00,,,0.01,70,HR-IXPWINDi_r2_v1.2.,2013-01-12 19:22:00,
2013-01-12 14:27:00,44.0,40.9,30.16,SW,234,1.0,4.0,89,0.00,,,0.01,86,HR-IXPWINDi_r2_v1.2.,2013-01-12 19:27:00,
2013-01-12 14:32:00,44.1,41.3,30.16,SW,234,0.0,3.0,90,0.00,,,0.01,81,HR-IXPWINDi_r2_v1.2.,2013-01-12 19:32:00,
2013-01-12 14:37:00,44.3,41.5,30.16,SW,234,0.0,1.0,90,0.00,,,0.01,84,HR-IXPWINDi_r2_v1.2.,2013-01-12 19:37:00,
2013-01-12 14:42:00,44.1,41.0,30.15,SSE,157,3.0,3.0,89,0.00,,,0.01,84,HR-IXPWINDi_r2_v1.2.,2013-01-12 19:42:00,
2013-01-12 14:48:00,44.0,40.9,30.17,South,183,0.0,3.0,89,0.00,,,0.01,81,HR-IXPWINDi_r2_v1.2.,2013-01-12 19:48:00,
2013-01-12 14:53:00,44.3,41.2,30.16,SSE,166,1.0,3.0,89,0.00,,,0.01,81,HR-IXPWINDi_r2_v1.2.,2013-01-12 19:53:00,
2013-01-12 14:58:00,44.3,41.2,30.16,ESE,119,1.0,3.0,89,0.00,,,0.01,70,HR-IXPWINDi_r2_v1.2.,2013-01-12 19:58:00,
2013-01-12 15:03:00,44.3,41.2,30.15,ESE,106,0.0,3.0,89,0.00,,,0.01,70,HR-IXPWINDi_r2_v1.2.,2013-01-12 20:03:00,
2013-01-12 15:08:00,44.4,41.0,30.16,SE,146,0.0,3.0,88,0.00,,,0.01,69,HR-IXPWINDi_r2_v1.2.,2013-01-12 20:08:00,
2013-01-12 15:13:00,44.3,41.2,30.16,SE,146,2.0,2.0,89,0.00,,,0.01,72,HR-IXPWINDi_r2_v1.2.,2013-01-12 20:13:00,
2013-01-12 15:18:00,44.2,41.1,30.15,SSE,154,1.0,3.0,89,0.00,,,0.01,54,HR-IXPWINDi_r2_v1.2.,2013-01-12 20:18:00,
2013-01-12 15:24:00,44.0,40.9,30.16,SSE,156,1.0,3.0,89,0.00,,,0.01,47,HR-IXPWINDi_r2_v1.2.,2013-01-12 20:24:00,
2013-01-12 15:29:00,43.8,40.7,30.16,SSE,156,0.0,2.0,89,0.00,,,0.01,39,HR-IXPWINDi_r2_v1.2.,2013-01-12 20:29:00,
2013-01-12 15:34:00,43.8,41.0,30.16,SSE,156,0.0,2.0,90,0.00,,,0.01,30,HR-IXPWINDi_r2_v1.2.,2013-01-12 20:34:00,
2013-01-12 15:39:00,43.7,40.9,30.16,SSE,156,0.0,2.0,90,0.00,,,0.01,23,HR-IXPWINDi_r2_v1.2.,2013-01-12 20:39:00,
2013-01-12 15:44:00,43.7,40.9,30.16,SSE,156,0.0,1.0,90,0.00,,,0.01,25,HR-IXPWINDi_r2_v1.2.,2013-01-12 20:44:00,
2013-01-12 15:50:00,43.7,40.9,30.16,SSE,156,0.0,1.0,90,0.00,,,0.01,16,HR-IXPWINDi_r2_v1.2.,2013-01-12 20:50:00,
2013-01-12 15:55:00,43.6,40.8,30.16,SSE,156,0.0,1.0,90,0.00,,,0.01,14,HR-IXPWINDi_r2_v1.2.,2013-01-12 20:55:00,
2013-01-12 16:00:00,43.6,40.8,30.16,SSE,156,0.0,1.0,90,0.00,,,0.01,12,HR-IXPWINDi_r2_v1.2.,2013-01-12 21:00:00,
2013-01-12 16:05:00,43.6,40.8,30.16,SSE,156,1.0,2.0,90,0.00,,,0.01,9,HR-IXPWINDi_r2_v1.2.,2013-01-12 21:05:00,
2013-01-12 16:10:00,43.6,40.8,30.15,SSE,156,1.0,2.0,90,0.00,,,0.01,9,HR-IXPWINDi_r2_v1.2.,2013-01-12 21:10:00,
2013-01-12 16:16:00,43.6,41.1,30.16,SSE,156,0.0,2.0,91,0.00,,,0.01,5,HR-IXPWINDi_r2_v1.2.,2013-01-12 21:16:00,
2013-01-12 16:21:00,43.6,41.1,30.16,SSE,156,0.0,1.0,91,0.00,,,0.01,0,HR-IXPWINDi_r2_v1.2.,2013-01-12 21:21:00,
2013-01-12 16:26:00,43.5,41.0,30.16,SSE,156,0.0,0.0,91,0.00,,,0.01,0,HR-IXPWINDi_r2_v1.2.,2013-01-12 21:26:00,
2013-01-12 16:31:00,43.5,41.0,30.15,SSE,156,0.0,1.0,91,0.00,,,0.01,0,HR-IXPWINDi_r2_v1.2.,2013-01-12 21:31:00,
2013-01-12 16:36:00,43.5,41.0,30.15,SSE,156,0.0,1.0,91,0.00,,,0.01,0,HR-IXPWINDi_r2_v1.2.,2013-01-12 21:36:00,
2013-01-12 16:42:00,43.5,41.0,30.15,SSE,163,1.0,2.0,91,0.00,,,0.01,0,HR-IXPWINDi_r2_v1.2.,2013-01-12 21:42:00,
2013-01-12 16:47:00,43.4,40.9,30.15,South,175,0.0,2.0,91,0.00,,,0.01,0,HR-IXPWINDi_r2_v1.2.,2013-01-12 21:47:00,
2013-01-12 16:52:00,43.4,40.9,30.15,South,169,0.0,2.0,91,0.00,,,0.01,0,HR-IXPWINDi_r2_v1.2.,2013-01-12 21:52:00,
2013-01-12 16:57:00,43.4,40.9,30.14,SSE,159,1.0,3.0,91,0.00,,,0.01,0,HR-IXPWINDi_r2_v1.2.,2013-01-12 21:57:00,
2013-01-12 17:03:00,43.3,40.8,30.15,SSE,161,1.0,3.0,91,0.00,,,0.01,0,HR-IXPWINDi_r2_v1.2.,2013-01-12 22:03:00,
2013-01-12 17:08:00,43.2,40.7,30.15,SSE,161,0.0,3.0,91,0.00,,,0.01,0,HR-IXPWINDi_r2_v1.2.,2013-01-12 22:08:00,
2013-01-12 17:13:00,43.3,40.8,30.15,SSE,161,1.0,2.0,91,0.00,,,0.01,0,HR-IXPWINDi_r2_v1.2.,2013-01-12 22:13:00,
2013-01-12 17:18:00,43.3,40.8,30.15,SSE,162,0.0,1.0,91,0.00,,,0.01,0,HR-IXPWINDi_r2_v1.2.,2013-01-12 22:18:00,
2013-01-12 17:23:00,43.3,40.8,30.15,SSE,162,0.0,1.0,91,0.00,,,0.01,0,HR-IXPWINDi_r2_v1.2.,2013-01-12 22:23:00,
2013-01-12 17:29:00,43.3,40.8,30.15,SSE,162,0.0,1.0,91,0.00,,,0.01,0,HR-IXPWINDi_r2_v1.2.,2013-01-12 22:29:00,
2013-01-12 17:34:00,43.3,40.8,30.15,SSE,162,1.0,1.0,91,0.00,,,0.01,0,HR-IXPWINDi_r2_v1.2.,2013-01-12 22:34:00,
2013-01-12 17:39:00,43.3,40.8,30.15,SSE,165,0.0,1.0,91,0.00,,,0.01,0,HR-IXPWINDi_r2_v1.2.,2013-01-12 22:39:00,
2013-01-12 17:44:00,43.3,40.8,30.15,SW,215,1.0,2.0,91,0.00,,,0.01,0,HR-IXPWINDi_r2_v1.2.,2013-01-12 22:44:00,
2013-01-12 17:49:00,43.3,40.8,30.16,SW,222,1.0,3.0,91,0.00,,,0.01,0,HR-IXPWINDi_r2_v1.2.,2013-01-12 22:49:00,
2013-01-12 17:55:00,43.4,41.2,30.16,SW,217,2.0,3.0,92,0.00,,,0.01,0,HR-IXPWINDi_r2_v1.2.,2013-01-12 22:55:00,
2013-01-12 18:00:00,43.5,41.3,30.16,SSW,213,3.0,4.0,92,0.00,,,0.01,0,HR-IXPWINDi_r2_v1.2.,2013-01-12 23:00:00,
2013-01-12 18:05:00,43.5,41.3,30.15,SW,217,2.0,4.0,92,0.00,,,0.01,0,HR-IXPWINDi_r2_v1.2.,2013-01-12 23:05:00,
2013-01-12 18:10:00,43.3,41.1,30.16,SW,217,1.0,4.0,92,0.00,,,0.01,0,HR-IXPWINDi_r2_v1.2.,2013-01-12 23:10:00,
2013-01-12 18:15:00,43.0,40.8,30.15,SW,219,2.0,3.0,92,0.00,,,0.01,0,HR-IXPWINDi_r2_v1.2.,2013-01-12 23:15:00,
2013-01-12 18:20:00,42.9,41.0,30.16,SW,219,2.0,2.0,93,0.00,,,0.01,0,HR-IXPWINDi_r2_v1.2.,2013-01-12 23:20:00,
2013-01-12 18:26:00,42.9,41.0,30.16,SW,217,2.0,3.0,93,0.00,,,0.01,0,HR-IXPWINDi_r2_v1.2.,2013-01-12 23:26:00,
2013-01-12 18:31:00,42.9,41.0,30.15,SSW,209,3.0,4.0,93,0.00,,,0.01,0,HR-IXPWINDi_r2_v1.2.,2013-01-12 23:31:00,
2013-01-12 18:36:00,42.9,41.0,30.16,SSW,206,4.0,4.0,93,0.00,,,0.01,0,HR-IXPWINDi_r2_v1.2.,2013-01-12 23:36:00,
2013-01-12 18:41:00,42.8,40.9,30.15,SW,215,2.0,4.0,93,0.00,,,0.01,0,HR-IXPWINDi_r2_v1.2.,2013-01-12 23:41:00,
2013-01-12 18:47:00,42.7,41.0,30.15,SSW,212,1.0,4.0,94,0.00,,,0.01,0,HR-IXPWINDi_r2_v1.2.,2013-01-12 23:47:00,
2013-01-12 18:52:00,42.7,41.0,30.14,SSW,212,0.0,3.0,94,0.00,,,0.01,0,HR-IXPWINDi_r2_v1.2.,2013-01-12 23:52:00,
2013-01-12 18:57:00,42.9,41.2,30.14,SSW,212,0.0,2.0,94,0.00,,,0.01,0,HR-IXPWINDi_r2_v1.2.,2013-01-12 23:57:00,
2013-01-12 19:02:00,42.9,41.2,30.14,SSW,212,0.0,2.0,94,0.00,,,0.01,0,HR-IXPWINDi_r2_v1.2.,2013-01-13 00:02:00,
2013-01-12 19:07:00,43.0,41.3,30.14,SSW,212,0.0,1.0,94,0.00,,,0.01,0,HR-IXPWINDi_r2_v1.2.,2013-01-13 00:07:00,
2013-01-12 19:12:00,42.9,41.2,30.14,SSW,212,0.0,1.0,94,0.00,,,0.01,0,HR-IXPWINDi_r2_v1.2.,2013-01-13 00:12:00,
2013-01-12 19:18:00,42.9,41.2,30.15,SSW,212,1.0,2.0,94,0.00,,,0.01,0,HR-IXPWINDi_r2_v1.2.,2013-01-13 00:18:00,
2013-01-12 19:23:00,43.0,41.6,30.14,SSW,212,1.0,2.0,95,0.00,,,0.01,0,HR-IXPWINDi_r2_v1.2.,2013-01-13 00:23:00,
2013-01-12 19:28:00,43.0,41.6,30.14,SSW,210,2.0,4.0,95,0.00,,,0.01,0,HR-IXPWINDi_r2_v1.2.,2013-01-13 00:28:00,
2013-01-12 19:33:00,43.0,41.6,30.14,SSW,202,3.0,4.0,95,0.00,,,0.01,0,HR-IXPWINDi_r2_v1.2.,2013-01-13 00:33:00,
2013-01-12 19:38:00,42.9,41.5,30.14,SSW,200,3.0,4.0,95,0.00,,,0.01,0,HR-IXPWINDi_r2_v1.2.,2013-01-13 00:38:00,
2013-01-12 19:43:00,42.9,41.5,30.14,SSW,200,1.0,4.0,95,0.00,,,0.01,0,HR-IXPWINDi_r2_v1.2.,2013-01-13 00:43:00,
2013-01-12 19:48:00,42.9,41.5,30.14,SSW,200,2.0,4.0,95,0.00,,,0.01,0,HR-IXPWINDi_r2_v1.2.,2013-01-13 00:48:00,
2013-01-12 19:53:00,43.0,41.6,30.14,SSW,200,1.0,3.0,95,0.00,,,0.01,0,HR-IXPWINDi_r2_v1.2.,2013-01-13 00:53:00,
2013-01-12 19:59:00,42.9,41.5,30.15,SSW,200,1.0,3.0,95,0.00,,,0.01,0,HR-IXPWINDi_r2_v1.2.,2013-01-13 00:59:00,
2013-01-12 20:04:00,42.9,41.5,30.14,SSW,200,2.0,3.0,95,0.00,,,0.01,0,HR-IXPWINDi_r2_v1.2.,2013-01-13 01:04:00,
2013-01-12 20:09:00,42.9,41.5,30.15,SSW,200,1.0,3.0,95,0.00,,,0.01,0,HR-IXPWINDi_r2_v1.2.,2013-01-13 01:09:00,
2013-01-12 20:14:00,43.1,41.7,30.15,SSW,200,2.0,2.0,95,0.00,,,0.01,0,HR-IXPWINDi_r2_v1.2.,2013-01-13 01:14:00,
2013-01-12 20:19:00,43.0,41.6,30.15,SSW,200,1.0,3.0,95,0.00,,,0.01,0,HR-IXPWINDi_r2_v1.2.,2013-01-13 01:19:00,
2013-01-12 20:24:00,43.0,41.6,30.15,SSW,200,3.0,3.0,95,0.00,,,0.01,0,HR-IXPWINDi_r2_v1.2.,2013-01-13 01:24:00,
2013-01-12 20:30:00,43.0,41.6,30.15,SSW,200,4.0,4.0,95,0.00,,,0.01,0,HR-IXPWINDi_r2_v1.2.,2013-01-13 01:30:00,
2013-01-12 20:35:00,42.9,41.5,30.15,SSW,198,4.0,4.0,95,0.00,,,0.01,0,HR-IXPWINDi_r2_v1.2.,2013-01-13 01:35:00,
2013-01-12 20:40:00,42.9,41.5,30.15,SSW,196,3.0,5.0,95,0.00,,,0.01,0,HR-IXPWINDi_r2_v1.2.,2013-01-13 01:40:00,
2013-01-12 20:45:00,42.9,41.5,30.15,SSW,195,3.0,5.0,95,0.00,,,0.01,0,HR-IXPWINDi_r2_v1.2.,2013-01-13 01:45:00,
2013-01-12 20:51:00,43.0,41.9,30.15,SSW,196,3.0,4.0,96,0.00,,,0.01,0,HR-IXPWINDi_r2_v1.2.,2013-01-13 01:51:00,
2013-01-12 20:56:00,42.9,41.8,30.15,SSW,209,3.0,4.0,96,0.00,,,0.01,0,HR-IXPWINDi_r2_v1.2.,2013-01-13 01:56:00,
2013-01-12 21:01:00,43.0,41.9,30.15,SW,222,3.0,4.0,96,0.00,,,0.01,0,HR-IXPWINDi_r2_v1.2.,2013-01-13 02:01:00,
2013-01-12 21:06:00,43.0,41.9,30.15,SW,232,3.0,4.0,96,0.00,,,0.01,0,HR-IXPWINDi_r2_v1.2.,2013-01-13 02:06:00,
2013-01-12 21:11:00,42.9,41.5,30.15,WSW,243,2.0,4.0,95,0.00,,,0.01,0,HR-IXPWINDi_r2_v1.2.,2013-01-13 02:11:00,
2013-01-12 21:17:00,42.9,41.5,30.15,WSW,243,0.0,4.0,95,0.00,,,0.01,0,HR-IXPWINDi_r2_v1.2.,2013-01-13 02:17:00,
2013-01-12 21:22:00,42.9,41.5,30.14,WSW,243,0.0,3.0,95,0.00,,,0.01,0,HR-IXPWINDi_r2_v1.2.,2013-01-13 02:22:00,
2013-01-12 21:27:00,42.8,41.7,30.13,WSW,243,0.0,1.0,96,0.00,,,0.01,0,HR-IXPWINDi_r2_v1.2.,2013-01-13 02:27:00,
2013-01-12 21:32:00,43.0,41.9,30.14,WSW,243,0.0,1.0,96,0.00,,,0.01,0,HR-IXPWINDi_r2_v1.2.,2013-01-13 02:32:00,
2013-01-12 21:37:00,42.9,41.8,30.14,WSW,243,0.0,1.0,96,0.00,,,0.01,0,HR-IXPWINDi_r2_v1.2.,2013-01-13 02:37:00,
2013-01-12 21:42:00,42.9,41.8,30.14,WSW,243,0.0,0.0,96,0.00,,,0.01,0,HR-IXPWINDi_r2_v1.2.,2013-01-13 02:42:00,
2013-01-12 21:48:00,42.9,41.8,30.14,WSW,243,0.0,0.0,96,0.00,,,0.01,0,HR-IXPWINDi_r2_v1.2.,2013-01-13 02:48:00,
2013-01-12 21:53:00,42.9,41.8,30.14,WSW,243,1.0,2.0,96,0.00,,,0.01,0,HR-IXPWINDi_r2_v1.2.,2013-01-13 02:53:00,
2013-01-12 21:58:00,42.9,41.8,30.14,WSW,243,2.0,2.0,96,0.00,,,0.01,0,HR-IXPWINDi_r2_v1.2.,2013-01-13 02:58:00,
2013-01-12 22:03:00,42.8,41.7,30.13,WSW,243,1.0,2.0,96,0.00,,,0.01,0,HR-IXPWINDi_r2_v1.2.,2013-01-13 03:03:00,
2013-01-12 22:08:00,42.8,41.7,30.14,WSW,243,2.0,2.0,96,0.00,,,0.01,0,HR-IXPWINDi_r2_v1.2.,2013-01-13 03:08:00,
2013-01-12 22:14:00,42.9,41.8,30.14,WSW,243,1.0,3.0,96,0.00,,,0.01,0,HR-IXPWINDi_r2_v1.2.,2013-01-13 03:14:00,
2013-01-12 22:19:00,42.9,41.8,30.13,WSW,243,2.0,3.0,96,0.00,,,0.01,0,HR-IXPWINDi_r2_v1.2.,2013-01-13 03:19:00,
2013-01-12 22:24:00,42.8,41.7,30.13,WSW,243,1.0,3.0,96,0.00,,,0.01,0,HR-IXPWINDi_r2_v1.2.,2013-01-13 03:24:00,
2013-01-12 22:29:00,42.9,41.8,30.13,SW,236,3.0,3.0,96,0.00,,,0.01,0,HR-IXPWINDi_r2_v1.2.,2013-01-13 03:29:00,
2013-01-12 22:35:00,42.9,41.8,30.13,SW,235,1.0,3.0,96,0.00,,,0.01,0,HR-IXPWINDi_r2_v1.2.,2013-01-13 03:35:00,
2013-01-12 22:40:00,42.9,41.8,30.13,SW,235,1.0,3.0,96,0.00,,,0.01,0,HR-IXPWINDi_r2_v1.2.,2013-01-13 03:40:00,
2013-01-12 22:45:00,42.9,41.8,30.13,SW,235,0.0,2.0,96,0.00,,,0.01,0,HR-IXPWINDi_r2_v1.2.,2013-01-13 03:45:00,
2013-01-12 22:50:00,42.9,41.8,30.13,SW,235,2.0,2.0,96,0.00,,,0.01,0,HR-IXPWINDi_r2_v1.2.,2013-01-13 03:50:00,
2013-01-12 22:56:00,42.9,41.8,30.13,SW,235,1.0,3.0,96,0.00,,,0.01,0,HR-IXPWINDi_r2_v1.2.,2013-01-13 03:56:00,
2013-01-12 23:01:00,42.9,41.8,30.12,SW,226,2.0,3.0,96,0.00,,,0.01,0,HR-IXPWINDi_r2_v1.2.,2013-01-13 04:01:00,
2013-01-12 23:06:00,42.9,41.8,30.12,SW,224,2.0,3.0,96,0.00,,,0.01,0,HR-IXPWINDi_r2_v1.2.,2013-01-13 04:06:00,
2013-01-12 23:11:00,43.0,41.9,30.12,SW,224,1.0,3.0,96,0.00,,,0.01,0,HR-IXPWINDi_r2_v1.2.,2013-01-13 04:11:00,
2013-01-12 23:16:00,43.0,41.9,30.13,SW,224,1.0,2.0,96,0.00,,,0.01,0,HR-IXPWINDi_r2_v1.2.,2013-01-13 04:16:00,
2013-01-12 23:22:00,43.0,41.9,30.13,WSW,237,1.0,3.0,96,0.00,,,0.01,0,HR-IXPWINDi_r2_v1.2.,2013-01-13 04:22:00,
2013-01-12 23:27:00,43.0,41.9,30.13,WSW,242,1.0,3.0,96,0.00,,,0.01,0,HR-IXPWINDi_r2_v1.2.,2013-01-13 04:27:00,
2013-01-12 23:32:00,43.0,41.9,30.13,WSW,242,1.0,3.0,96,0.00,,,0.01,0,HR-IXPWINDi_r2_v1.2.,2013-01-13 04:32:00,
2013-01-12 23:37:00,43.1,42.0,30.13,WSW,242,1.0,2.0,96,0.00,,,0.01,0,HR-IXPWINDi_r2_v1.2.,2013-01-13 04:37:00,
2013-01-12 23:43:00,43.2,42.1,30.13,WSW,241,1.0,2.0,96,0.00,,,0.01,0,HR-IXPWINDi_r2_v1.2.,2013-01-13 04:43:00,
2013-01-12 23:48:00,43.3,42.2,30.14,WSW,242,1.0,3.0,96,0.00,,,0.01,0,HR-IXPWINDi_r2_v1.2.,2013-01-13 04:48:00,
2013-01-12 23:53:00,43.5,42.4,30.13,WSW,242,2.0,3.0,96,0.00,,,0.01,0,HR-IXPWINDi_r2_v1.2.,2013-01-13 04:53:00,
2013-01-12 23:58:00,43.6,42.5,30.13,SW,231,2.0,4.0,96,0.00,,,0.01,0,HR-IXPWINDi_r2_v1.2.,2013-01-13 04:58:00,